createdAt,value
2023-03-26T00:01:15.685Z,6.20
2023-03-26T00:03:47.569Z,11.20
2023-03-26T00:06:15.732Z,10.90
2023-03-26T00:08:43.543Z,10.90
2023-03-26T00:11:11.666Z,8.30
2023-03-26T00:13:43.752Z,8.30
2023-03-26T00:16:12.158Z,8.20
2023-03-26T00:18:40.455Z,9.60
2023-03-26T00:21:07.995Z,10.00
2023-03-26T00:23:35.202Z,8.10
2023-03-26T00:26:03.169Z,10.40
2023-03-26T00:28:30.120Z,10.20
2023-03-26T00:31:01.775Z,8.00
2023-03-26T00:33:29.116Z,9.60
2023-03-26T00:35:59.043Z,10.00
2023-03-26T00:38:27.052Z,10.60
2023-03-26T00:40:54.538Z,8.00
2023-03-26T00:43:22.202Z,9.70
2023-03-26T00:45:54.397Z,10.30
2023-03-26T00:48:31.322Z,10.10
2023-03-26T00:51:01.491Z,7.90
2023-03-26T00:53:28.334Z,10.40
2023-03-26T00:56:00.331Z,9.60
2023-03-26T00:58:27.549Z,10.60
2023-03-26T01:00:59.538Z,9.90
2023-03-26T01:03:30.852Z,9.60
2023-03-26T01:06:35.891Z,10.20
2023-03-26T01:09:06.760Z,7.80
2023-03-26T01:11:34.871Z,8.70
2023-03-26T01:14:24.672Z,10.00
2023-03-26T01:16:54.847Z,7.80
2023-03-26T01:19:41.486Z,10.00
2023-03-26T01:22:11.281Z,7.80
2023-03-26T01:24:39.253Z,9.90
2023-03-26T01:27:18.331Z,8.90
2023-03-26T01:30:17.044Z,7.70
2023-03-26T01:33:06.962Z,7.70
2023-03-26T01:35:54.906Z,9.40
2023-03-26T01:38:28.017Z,9.90
2023-03-26T01:41:04.685Z,7.60
2023-03-26T01:43:39.710Z,7.60
2023-03-26T01:46:08.234Z,6.30
2023-03-26T01:48:45.127Z,10.50
2023-03-26T01:51:12.668Z,7.60
2023-03-26T01:53:44.304Z,7.60
2023-03-26T01:56:20.097Z,10.10
2023-03-26T01:59:13.129Z,7.60
2023-03-26T02:02:01.316Z,7.60
2023-03-26T02:04:34.320Z,8.70
2023-03-26T02:07:08.087Z,9.70
2023-03-26T02:09:37.983Z,7.60
2023-03-26T02:12:05.434Z,10.40
2023-03-26T02:14:32.343Z,7.60
2023-03-26T02:17:00.839Z,9.30
2023-03-26T02:19:27.693Z,10.10
2023-03-26T02:21:59.736Z,7.50
2023-03-26T02:24:27.939Z,10.50
2023-03-26T02:27:02.237Z,6.90
2023-03-26T02:29:29.713Z,9.70
2023-03-26T02:31:57.226Z,9.20
2023-03-26T02:34:24.128Z,8.50
2023-03-26T02:36:53.357Z,9.70
2023-03-26T02:39:20.885Z,10.00
2023-03-26T02:42:02.518Z,9.30
2023-03-26T02:44:32.770Z,9.90
2023-03-26T02:46:59.657Z,9.90
2023-03-26T02:49:44.942Z,8.30
2023-03-26T02:52:18.763Z,8.90
2023-03-26T02:54:47.603Z,9.30
2023-03-26T02:57:17.906Z,10.00
2023-03-26T02:59:50.525Z,9.90
2023-03-26T03:02:40.723Z,8.20
2023-03-26T03:05:28.844Z,8.30
2023-03-26T03:08:18.619Z,8.90
2023-03-26T03:11:16.619Z,9.90
2023-03-26T03:13:46.423Z,7.40
2023-03-26T03:16:17.340Z,8.40
2023-03-26T03:18:44.215Z,9.20
2023-03-26T03:21:11.145Z,9.80
2023-03-26T03:23:37.992Z,7.40
2023-03-26T03:26:14.348Z,9.70
2023-03-26T03:28:45.099Z,8.70
2023-03-26T03:31:15.121Z,9.50
2023-03-26T03:33:43.013Z,9.60
2023-03-26T03:36:20.922Z,7.40
2023-03-26T03:38:55.908Z,7.40
2023-03-26T03:41:23.887Z,9.80
2023-03-26T03:43:51.867Z,9.70
2023-03-26T03:46:25.206Z,10.40
2023-03-26T03:48:52.133Z,9.70
2023-03-26T03:51:26.762Z,9.60
2023-03-26T03:53:57.681Z,7.80
2023-03-26T03:56:40.492Z,7.80
2023-03-26T03:59:29.694Z,10.30
2023-03-26T04:01:57.453Z,8.20
2023-03-26T04:04:32.805Z,7.80
2023-03-26T04:07:02.258Z,9.30
2023-03-26T04:09:40.340Z,9.10
2023-03-26T04:12:14.345Z,9.00
2023-03-26T04:15:01.518Z,10.10
2023-03-26T04:17:30.591Z,7.80
2023-03-26T04:19:57.784Z,9.80
2023-03-26T04:22:34.742Z,10.30
2023-03-26T04:25:05.214Z,10.10
2023-03-26T04:27:52.327Z,7.70
2023-03-26T04:30:45.332Z,8.70
2023-03-26T04:33:34.119Z,7.70
2023-03-26T04:36:03.116Z,9.90
2023-03-26T04:38:44.643Z,7.70
2023-03-26T04:41:12.993Z,9.90
2023-03-26T04:43:55.230Z,10.00
2023-03-26T04:46:35.028Z,10.00
2023-03-26T04:49:22.184Z,8.60
2023-03-26T04:51:49.044Z,7.40
2023-03-26T04:54:35.913Z,7.50
2023-03-26T04:57:28.100Z,6.80
2023-03-26T05:00:02.991Z,7.50
2023-03-26T05:02:34.361Z,10.00
2023-03-26T05:05:02.962Z,8.30
2023-03-26T05:07:31.588Z,9.90
2023-03-26T05:10:03.396Z,9.80
2023-03-26T05:12:36.740Z,8.80
2023-03-26T05:15:08.576Z,8.60
2023-03-26T05:17:58.099Z,7.40
2023-03-26T05:20:52.048Z,9.30
2023-03-26T05:23:18.912Z,9.40
2023-03-26T05:25:52.772Z,9.60
2023-03-26T05:28:24.691Z,9.60
2023-03-26T05:30:55.931Z,7.40
2023-03-26T05:33:24.824Z,7.40
2023-03-26T05:36:02.732Z,9.60
2023-03-26T05:38:31.625Z,9.20
2023-03-26T05:41:00.319Z,8.90
2023-03-26T05:43:27.899Z,8.20
2023-03-26T05:46:03.777Z,8.60
2023-03-26T05:48:32.561Z,7.30
2023-03-26T05:50:59.876Z,9.80
2023-03-26T05:53:29.126Z,8.20
2023-03-26T05:56:14.616Z,10.10
2023-03-26T05:59:00.076Z,9.30
2023-03-26T06:01:45.784Z,9.40
2023-03-26T06:04:32.086Z,8.00
2023-03-26T06:07:19.876Z,9.60
2023-03-26T06:10:00.852Z,10.20
2023-03-26T06:12:27.879Z,10.00
2023-03-26T06:14:55.192Z,7.70
2023-03-26T06:17:39.400Z,7.70
2023-03-26T06:20:17.074Z,8.20
2023-03-26T06:22:46.811Z,7.80
2023-03-26T06:25:21.667Z,10.00
2023-03-26T06:27:57.382Z,8.90
2023-03-26T06:30:46.871Z,10.00
2023-03-26T06:33:32.653Z,10.90
2023-03-26T06:36:00.300Z,10.10
2023-03-26T06:38:27.501Z,10.60
2023-03-26T06:40:54.797Z,10.30
2023-03-26T06:43:24.839Z,10.30
2023-03-26T06:46:05.562Z,9.10
2023-03-26T06:48:38.985Z,8.00
2023-03-26T06:51:20.584Z,10.50
2023-03-26T06:54:06.143Z,11.00
2023-03-26T06:57:01.950Z,9.10
2023-03-26T06:59:40.967Z,10.60
2023-03-26T07:02:26.595Z,8.10
2023-03-26T07:05:13.979Z,9.40
2023-03-26T07:07:59.709Z,9.60
2023-03-26T07:10:45.545Z,8.10
2023-03-26T07:13:26.314Z,8.20
2023-03-26T07:16:11.810Z,8.30
2023-03-26T07:18:57.235Z,9.80
2023-03-26T07:21:29.832Z,8.30
2023-03-26T07:23:57.152Z,9.70
2023-03-26T07:26:38.414Z,8.40
2023-03-26T07:30:02.270Z,8.40
2023-03-26T07:33:16.803Z,8.50
2023-03-26T07:36:06.020Z,8.50
2023-03-26T07:39:04.449Z,8.50
2023-03-26T07:41:46.098Z,10.60
2023-03-26T07:44:35.638Z,8.60
2023-03-26T07:47:36.776Z,10.30
2023-03-26T07:50:24.110Z,8.60
2023-03-26T07:53:09.551Z,9.60
2023-03-26T07:56:20.430Z,8.60
2023-03-26T07:59:26.043Z,8.60
2023-03-26T08:02:53.211Z,8.70
2023-03-26T08:05:42.596Z,8.80
2023-03-26T08:08:45.882Z,8.90
2023-03-26T08:11:52.376Z,10.20
2023-03-26T08:14:24.983Z,9.00
2023-03-26T08:17:12.843Z,9.00
2023-03-26T08:19:51.789Z,9.00
2023-03-26T08:22:31.401Z,9.00
2023-03-26T08:25:49.873Z,11.20
2023-03-26T08:28:29.911Z,9.10
2023-03-26T08:30:57.396Z,9.10
2023-03-26T08:33:27.677Z,9.20
2023-03-26T08:35:54.601Z,9.20
2023-03-26T08:38:21.669Z,11.40
2023-03-26T08:41:00.377Z,10.70
2023-03-26T08:43:30.024Z,9.30
2023-03-26T08:46:08.779Z,9.40
2023-03-26T08:48:50.730Z,9.50
2023-03-26T08:51:17.756Z,9.60
2023-03-26T08:54:16.235Z,9.70
2023-03-26T08:57:23.463Z,9.90
2023-03-26T09:00:18.156Z,10.10
2023-03-26T09:03:12.483Z,10.30
2023-03-26T09:06:03.676Z,10.40
2023-03-26T09:08:54.237Z,10.50
2023-03-26T09:11:34.412Z,10.60
2023-03-26T09:14:35.962Z,10.70
2023-03-26T09:17:12.798Z,10.90
2023-03-26T09:20:08.929Z,11.10
2023-03-26T09:22:41.630Z,11.30
2023-03-26T09:25:17.722Z,11.50
2023-03-26T09:28:03.380Z,12.90
2023-03-26T09:31:01.355Z,12.30
2023-03-26T09:33:56.452Z,12.00
2023-03-26T09:36:36.220Z,12.00
2023-03-26T09:39:15.709Z,12.20
2023-03-26T09:41:56.104Z,12.40
2023-03-26T09:44:50.806Z,12.60
2023-03-26T09:47:26.638Z,12.80
2023-03-26T09:50:29.577Z,12.90
2023-03-26T09:53:14.518Z,12.80
2023-03-26T09:55:51.477Z,12.60
2023-03-26T09:58:54.206Z,11.40
2023-03-26T10:01:44.740Z,12.20
2023-03-26T10:04:23.879Z,12.20
2023-03-26T10:07:10.417Z,12.30
2023-03-26T10:09:42.021Z,12.50
2023-03-26T10:12:20.061Z,12.60
2023-03-26T10:14:53.584Z,12.70
2023-03-26T10:17:25.770Z,12.70
2023-03-26T10:20:36.259Z,12.80
2023-03-26T10:23:47.845Z,12.80
2023-03-26T10:27:09.173Z,12.80
2023-03-26T10:29:41.641Z,12.70
2023-03-26T10:32:23.601Z,12.70
2023-03-26T10:35:26.419Z,12.70
2023-03-26T10:38:02.644Z,12.60
2023-03-26T10:41:04.655Z,14.70
2023-03-26T10:44:07.253Z,12.60
2023-03-26T10:47:11.218Z,12.50
2023-03-26T10:50:01.326Z,12.40
2023-03-26T10:52:44.415Z,12.30
2023-03-26T10:55:16.543Z,12.20
2023-03-26T10:58:14.621Z,12.80
2023-03-26T11:01:06.242Z,12.00
2023-03-26T11:03:51.968Z,12.00
2023-03-26T11:06:18.806Z,11.90
2023-03-26T11:08:51.599Z,12.30
2023-03-26T11:11:24.336Z,11.80
2023-03-26T11:13:59.473Z,11.90
2023-03-26T11:16:47.263Z,13.80
2023-03-26T11:19:22.270Z,12.00
2023-03-26T11:21:57.619Z,14.10
2023-03-26T11:24:35.180Z,12.40
2023-03-26T11:27:25.021Z,12.60
2023-03-26T11:30:19.783Z,12.70
2023-03-26T11:32:53.068Z,12.50
2023-03-26T11:35:40.477Z,12.10
2023-03-26T11:38:37.636Z,11.80
2023-03-26T11:41:27.122Z,12.00
2023-03-26T11:44:05.396Z,11.90
2023-03-26T11:46:35.505Z,13.40
2023-03-26T11:49:06.812Z,12.60
2023-03-26T11:51:35.715Z,12.70
2023-03-26T11:54:03.426Z,11.00
2023-03-26T11:56:34.163Z,11.20
2023-03-26T11:59:21.180Z,11.50
2023-03-26T12:01:52.442Z,11.60
2023-03-26T12:04:28.743Z,11.70
2023-03-26T12:06:59.739Z,12.70
2023-03-26T12:09:26.993Z,12.30
2023-03-26T12:12:05.323Z,12.10
2023-03-26T12:14:34.757Z,12.00
2023-03-26T12:17:03.014Z,12.40
2023-03-26T12:19:44.380Z,12.00
2023-03-26T12:22:33.284Z,11.90
2023-03-26T12:25:12.943Z,11.80
2023-03-26T12:27:45.199Z,11.80
2023-03-26T12:30:33.897Z,11.70
2023-03-26T12:33:03.775Z,12.30
2023-03-26T12:35:34.938Z,12.90
2023-03-26T12:38:24.824Z,13.70
2023-03-26T12:44:44.185Z,11.40
2023-03-26T12:44:56.402Z,11.20
2023-03-26T12:47:58.244Z,11.10
2023-03-26T12:49:33.630Z,11.00
2023-03-26T12:52:23.468Z,12.10
2023-03-26T12:54:59.013Z,11.10
2023-03-26T12:57:30.909Z,11.30
2023-03-26T13:00:14.769Z,11.40
2023-03-26T13:03:14.349Z,11.50
2023-03-26T13:06:05.165Z,11.60
2023-03-26T13:09:04.991Z,11.60
2023-03-26T13:11:59.288Z,11.60
2023-03-26T13:14:38.098Z,11.50
2023-03-26T13:17:11.755Z,11.50
2023-03-26T13:20:06.740Z,11.60
2023-03-26T13:22:56.367Z,11.80
2023-03-26T13:25:50.870Z,13.30
2023-03-26T13:28:33.161Z,12.40
2023-03-26T13:31:07.054Z,12.50
2023-03-26T13:34:04.115Z,12.50
2023-03-26T13:36:42.655Z,12.40
2023-03-26T13:39:15.504Z,12.30
2023-03-26T13:42:16.386Z,12.90
2023-03-26T13:45:04.669Z,11.90
2023-03-26T13:47:35.182Z,11.40
2023-03-26T13:50:27.644Z,13.10
2023-03-26T13:52:59.130Z,9.90
2023-03-26T13:55:48.833Z,10.50
2023-03-26T13:58:34.801Z,9.00
2023-03-26T14:01:12.475Z,11.70
2023-03-26T14:03:58.999Z,8.80
2023-03-26T14:06:43.353Z,10.50
2023-03-26T14:09:21.731Z,8.90
2023-03-26T14:12:00.816Z,8.90
2023-03-26T14:14:43.408Z,11.30
2023-03-26T14:17:33.114Z,10.70
2023-03-26T14:20:25.268Z,9.10
2023-03-26T14:23:16.486Z,9.30
2023-03-26T14:25:53.635Z,9.50
2023-03-26T14:28:51.739Z,9.60
2023-03-26T14:31:23.181Z,9.70
2023-03-26T14:34:04.927Z,11.90
2023-03-26T14:36:48.909Z,9.80
2023-03-26T14:39:34.924Z,9.70
2023-03-26T14:42:03.377Z,9.60
2023-03-26T14:44:48.441Z,9.50
2023-03-26T14:47:23.874Z,9.30
2023-03-26T14:50:08.342Z,9.20
2023-03-26T14:52:51.458Z,10.50
2023-03-26T14:55:40.782Z,8.90
2023-03-26T14:58:10.762Z,8.80
2023-03-26T15:01:05.401Z,9.60
2023-03-26T15:04:11.460Z,8.70
2023-03-26T15:06:56.765Z,8.60
2023-03-26T15:09:46.418Z,10.70
2023-03-26T15:12:16.296Z,8.50
2023-03-26T15:15:00.853Z,10.10
2023-03-26T15:17:40.589Z,8.40
2023-03-26T15:20:13.501Z,8.40
2023-03-26T15:23:06.623Z,8.30
2023-03-26T15:26:02.765Z,8.20
2023-03-26T15:28:48.364Z,8.10
2023-03-26T15:31:42.667Z,8.10
2023-03-26T15:34:12.753Z,8.10
2023-03-26T15:37:06.459Z,8.00
2023-03-26T15:39:38.241Z,8.00
2023-03-26T15:42:12.191Z,8.00
2023-03-26T15:45:11.570Z,9.20
2023-03-26T15:47:41.586Z,7.90
2023-03-26T15:50:42.024Z,10.20
2023-03-26T15:53:47.930Z,7.80
2023-03-26T15:56:23.804Z,7.80
2023-03-26T15:59:07.976Z,7.90
2023-03-26T16:01:48.262Z,7.80
2023-03-26T16:04:50.403Z,7.90
2023-03-26T16:07:29.009Z,7.90
2023-03-26T16:10:16.135Z,8.10
2023-03-26T16:12:56.706Z,8.30
2023-03-26T16:15:30.489Z,8.60
2023-03-26T16:18:15.530Z,8.80
2023-03-26T16:20:50.664Z,9.00
2023-03-26T16:23:30.812Z,9.10
2023-03-26T16:26:12.748Z,9.30
2023-03-26T16:28:46.695Z,11.80
2023-03-26T16:31:23.503Z,11.00
2023-03-26T16:34:08.904Z,9.60
2023-03-26T16:36:37.264Z,9.70
2023-03-26T16:39:05.400Z,9.60
2023-03-26T16:41:46.865Z,11.20
2023-03-26T16:44:32.272Z,9.60
2023-03-26T16:46:59.225Z,9.60
2023-03-26T16:49:41.172Z,11.10
2023-03-26T16:52:23.558Z,9.30
2023-03-26T16:55:07.302Z,9.20
2023-03-26T16:57:56.487Z,9.10
2023-03-26T17:00:43.135Z,9.00
2023-03-26T17:03:25.703Z,9.00
2023-03-26T17:05:58.276Z,9.10
2023-03-26T17:08:45.900Z,9.80
2023-03-26T17:11:36.223Z,8.80
2023-03-26T17:14:21.750Z,8.70
2023-03-26T17:16:50.396Z,8.60
2023-03-26T17:19:42.433Z,8.20
2023-03-26T17:22:38.187Z,8.40
2023-03-26T17:25:44.610Z,8.30
2023-03-26T17:29:01.614Z,8.30
2023-03-26T17:31:43.123Z,8.20
2023-03-26T17:34:32.054Z,8.10
2023-03-26T17:36:59.203Z,10.60
2023-03-26T17:39:42.309Z,8.10
2023-03-26T17:42:18.993Z,8.00
2023-03-26T17:44:58.522Z,8.00
2023-03-26T17:47:45.666Z,8.50
2023-03-26T17:50:27.569Z,8.00
2023-03-26T17:52:57.979Z,7.80
2023-03-26T17:55:30.531Z,9.30
2023-03-26T17:58:05.680Z,7.80
2023-03-26T18:00:43.290Z,8.90
2023-03-26T18:03:14.946Z,7.70
2023-03-26T18:05:42.273Z,10.40
2023-03-26T18:08:24.132Z,10.20
2023-03-26T18:11:05.240Z,7.60
2023-03-26T18:13:50.320Z,7.60
2023-03-26T18:16:17.545Z,7.60
2023-03-26T18:18:47.444Z,10.50
2023-03-26T18:21:23.741Z,9.70
2023-03-26T18:23:50.787Z,5.90
2023-03-26T18:26:32.119Z,10.00
2023-03-26T18:29:28.858Z,9.10
2023-03-26T18:32:22.544Z,7.50
2023-03-26T18:35:20.353Z,9.50
2023-03-26T18:37:49.187Z,7.40
2023-03-26T18:40:21.027Z,8.60
2023-03-26T18:42:51.822Z,7.40
2023-03-26T18:45:33.799Z,10.00
2023-03-26T18:48:05.242Z,7.30
2023-03-26T18:50:36.998Z,9.10
2023-03-26T18:53:05.623Z,8.20
2023-03-26T18:55:34.474Z,8.50
2023-03-26T18:58:10.107Z,7.20
2023-03-26T19:00:37.092Z,8.10
2023-03-26T19:03:06.014Z,8.50
2023-03-26T19:05:36.577Z,7.20
2023-03-26T19:08:04.846Z,7.20
2023-03-26T19:10:33.082Z,9.30
2023-03-26T19:13:04.112Z,9.30
2023-03-26T19:15:31.753Z,8.60
2023-03-26T19:18:06.988Z,9.40
2023-03-26T19:20:56.177Z,7.60
2023-03-26T19:23:28.596Z,7.10
2023-03-26T19:25:56.180Z,10.00
2023-03-26T19:28:24.942Z,9.20
2023-03-26T19:31:08.894Z,7.30
2023-03-26T19:33:37.534Z,8.10
2023-03-26T19:36:05.992Z,8.10
2023-03-26T19:38:50.063Z,6.90
2023-03-26T19:41:24.943Z,6.90
2023-03-26T19:43:53.647Z,6.90
2023-03-26T19:46:23.125Z,9.70
2023-03-26T19:48:52.576Z,9.70
2023-03-26T19:51:24.421Z,9.70
2023-03-26T19:53:55.758Z,4.90
2023-03-26T19:56:22.995Z,5.80
2023-03-26T19:58:50.305Z,9.10
2023-03-26T20:01:19.095Z,9.00
2023-03-26T20:03:47.667Z,8.80
2023-03-26T20:06:16.438Z,8.60
2023-03-26T20:08:43.834Z,9.00
2023-03-26T20:11:20.198Z,9.40
2023-03-26T20:13:47.286Z,8.40
2023-03-26T20:16:18.236Z,8.50
2023-03-26T20:18:45.201Z,6.50
2023-03-26T20:21:12.494Z,8.90
2023-03-26T20:23:40.552Z,8.20
2023-03-26T20:26:13.892Z,6.50
2023-03-26T20:28:47.628Z,6.40
2023-03-26T20:31:22.031Z,6.20
2023-03-26T20:33:49.731Z,7.80
2023-03-26T20:36:33.986Z,8.30
2023-03-26T20:39:08.411Z,6.30
2023-03-26T20:41:35.999Z,6.70
2023-03-26T20:44:04.992Z,6.30
2023-03-26T20:46:34.455Z,8.60
2023-03-26T20:49:01.393Z,8.40
2023-03-26T20:51:28.968Z,6.30
2023-03-26T20:53:56.090Z,6.30
2023-03-26T20:56:23.490Z,8.30
2023-03-26T20:59:03.655Z,6.30
2023-03-26T21:01:37.828Z,6.30
2023-03-26T21:04:04.788Z,8.70
2023-03-26T21:06:31.732Z,7.50
2023-03-26T21:08:58.911Z,6.30
2023-03-26T21:11:45.903Z,6.20
2023-03-26T21:14:26.077Z,6.30
2023-03-26T21:16:53.455Z,6.20
2023-03-26T21:19:20.588Z,6.30
2023-03-26T21:21:50.675Z,6.20
2023-03-26T21:24:46.060Z,9.00
2023-03-26T21:27:17.552Z,8.20
2023-03-26T21:29:44.601Z,6.10
2023-03-26T21:32:12.304Z,6.10
2023-03-26T21:34:47.714Z,6.10
2023-03-26T21:37:19.321Z,6.10
2023-03-26T21:39:46.404Z,6.00
2023-03-26T21:42:13.681Z,6.00
2023-03-26T21:44:41.232Z,6.00
2023-03-26T21:47:09.991Z,6.00
2023-03-26T21:49:37.386Z,6.00
2023-03-26T21:52:04.666Z,6.00
2023-03-26T21:54:32.459Z,5.90
2023-03-26T21:57:15.742Z,5.90
2023-03-26T21:59:51.852Z,5.90
2023-03-26T22:02:30.266Z,7.20
2023-03-26T22:05:00.649Z,5.80
2023-03-26T22:07:50.903Z,8.10
2023-03-26T22:10:17.828Z,8.30
2023-03-26T22:12:44.709Z,5.80
2023-03-26T22:15:14.596Z,7.90
2023-03-26T22:17:42.144Z,5.80
2023-03-26T22:20:13.262Z,5.70
2023-03-26T22:22:41.528Z,7.20
2023-03-26T22:25:10.333Z,5.80
2023-03-26T22:27:44.179Z,5.80
2023-03-26T22:30:12.634Z,8.40
2023-03-26T22:32:39.917Z,5.70
2023-03-26T22:35:07.203Z,8.70
2023-03-26T22:37:34.712Z,5.80
2023-03-26T22:40:01.517Z,5.80
2023-03-26T22:42:28.438Z,6.40
2023-03-26T22:44:55.370Z,5.90
2023-03-26T22:47:22.520Z,5.90
2023-03-26T22:49:49.392Z,7.10
2023-03-26T22:52:16.360Z,6.50
2023-03-26T22:54:43.207Z,8.20
2023-03-26T22:57:10.179Z,7.00
2023-03-26T22:59:37.146Z,5.80
2023-03-26T23:02:04.235Z,8.80
2023-03-26T23:04:32.191Z,7.80
2023-03-26T23:06:59.666Z,5.80
2023-03-26T23:09:26.572Z,5.80
2023-03-26T23:11:53.483Z,7.60
2023-03-26T23:14:20.371Z,8.00
2023-03-26T23:16:47.261Z,7.40
2023-03-26T23:19:14.256Z,7.30
2023-03-26T23:21:41.309Z,8.30
2023-03-26T23:24:08.365Z,5.80
2023-03-26T23:26:47.859Z,5.80
2023-03-26T23:29:17.415Z,8.80
2023-03-26T23:31:44.482Z,8.10
2023-03-26T23:34:13.509Z,6.70
2023-03-26T23:36:41.747Z,5.90
2023-03-26T23:39:09.300Z,5.90
2023-03-26T23:41:36.791Z,7.50
2023-03-26T23:44:03.975Z,5.90
2023-03-26T23:46:33.126Z,5.90
2023-03-26T23:49:02.454Z,5.90
2023-03-26T23:51:32.372Z,7.10
2023-03-26T23:53:59.974Z,9.10
2023-03-26T23:56:32.725Z,5.90
2023-03-26T23:59:00.546Z,8.90
